Time;durP1;ratioP1;P1;durP2;ratioP2;P2;SDS_P1;SDS_P2;PMS_P1;PMS_P2;Temp;Humidity;BMP_temperature;BMP_pressure;BME280_temperature;BME280_humidity;BME280_pressure;Samples;Min_cycle;Max_cycle;Signal;HPM_P1;HPM_P2
2023/01/12 00:02:17;;;;;;;14.57;8.15;;;7.90;99.90;;;;;;5030615;28;20041;-38
2023/01/12 00:04:43;;;;;;;10.32;4.85;;;7.90;99.90;;;;;;5030847;28;20034;-38
2023/01/12 00:07:11;;;;;;;13.38;4.18;;;7.90;99.90;;;;;;5030947;28;20646;-38
2023/01/12 00:09:37;;;;;;;10.52;2.95;;;7.90;99.90;;;;;;5030500;28;20049;-38
2023/01/12 00:12:09;;;;;;;13.00;5.35;;;7.90;99.90;;;;;;5031361;28;20041;-39
2023/01/12 00:14:37;;;;;;;13.00;5.72;;;7.90;99.90;;;;;;5034126;28;20187;-38
2023/01/12 00:17:04;;;;;;;16.50;5.75;;;8.00;99.90;;;;;;5033865;28;20053;-38
2023/01/12 00:19:31;;;;;;;15.38;5.88;;;8.00;99.90;;;;;;5034073;28;20138;-38
2023/01/12 00:22:00;;;;;;;19.05;5.53;;;7.90;99.90;;;;;;5033993;28;20041;-38
2023/01/12 00:24:35;;;;;;;18.92;7.55;;;7.90;99.90;;;;;;5033521;28;20057;-35
2023/01/12 00:27:05;;;;;;;20.77;6.90;;;7.90;99.90;;;;;;5033988;28;20029;-36
2023/01/12 00:29:31;;;;;;;18.63;6.85;;;7.90;99.90;;;;;;5033604;28;20180;-35
2023/01/12 00:31:59;;;;;;;19.67;7.68;;;7.90;99.90;;;;;;5015785;28;20049;-38
2023/01/12 00:34:25;;;;;;;18.08;5.47;;;7.90;99.90;;;;;;4997489;28;20136;-38
2023/01/12 00:36:51;;;;;;;19.77;6.22;;;8.00;99.90;;;;;;5013882;28;20037;-38
2023/01/12 00:39:17;;;;;;;19.33;5.90;;;8.00;99.90;;;;;;5014168;28;20049;-38
2023/01/12 00:47:13;;;;;;;15.68;5.50;;;8.10;99.90;;;;;;5015021;28;20385;-37
2023/01/12 00:49:40;;;;;;;19.63;6.15;;;8.10;99.90;;;;;;5013783;28;20065;-38
2023/01/12 00:52:08;;;;;;;17.02;5.28;;;8.10;99.90;;;;;;5013653;28;20034;-38
2023/01/12 00:54:34;;;;;;;15.82;4.60;;;8.00;99.90;;;;;;5021620;28;20034;-38
2023/01/12 00:57:01;;;;;;;16.20;5.03;;;8.10;99.90;;;;;;5033599;28;20167;-38
2023/01/12 00:59:27;;;;;;;17.50;4.88;;;8.00;99.90;;;;;;5033403;28;20130;-38
2023/01/12 01:01:53;;;;;;;20.67;5.75;;;8.00;99.90;;;;;;5033249;28;20061;-38
2023/01/12 01:04:19;;;;;;;12.70;5.15;;;8.00;99.90;;;;;;5033152;28;20495;-38
2023/01/12 01:06:45;;;;;;;16.38;4.55;;;8.00;99.90;;;;;;5022583;28;20513;-38
2023/01/12 01:09:11;;;;;;;14.15;4.47;;;8.10;99.90;;;;;;5013003;28;20044;-38
2023/01/12 01:11:36;;;;;;;14.80;4.78;;;8.10;99.90;;;;;;5012951;28;20038;-38
2023/01/12 01:14:02;;;;;;;14.35;4.22;;;8.00;99.90;;;;;;5013156;28;20064;-38
2023/01/12 01:16:28;;;;;;;17.95;4.95;;;8.00;99.90;;;;;;5013223;28;20042;-38
2023/01/12 01:18:55;;;;;;;13.73;5.03;;;8.00;99.90;;;;;;5013146;28;20533;-38
2023/01/12 01:21:21;;;;;;;18.23;5.93;;;8.00;99.90;;;;;;5012862;28;20061;-38
2023/01/12 01:23:47;;;;;;;15.43;5.57;;;8.10;99.90;;;;;;4996017;28;20076;-38
2023/01/12 01:26:16;;;;;;;14.30;6.15;;;8.10;99.90;;;;;;5012957;28;20038;-39
2023/01/12 01:28:42;;;;;;;14.00;5.53;;;8.10;99.90;;;;;;5012993;28;20121;-38
2023/01/12 01:31:17;;;;;;;12.90;5.35;;;8.10;99.90;;;;;;5012776;28;20428;-39
2023/01/12 01:33:46;;;;;;;16.95;5.57;;;8.10;99.90;;;;;;5012936;28;20480;-36
2023/01/12 01:36:12;;;;;;;15.48;4.78;;;8.10;99.90;;;;;;4998544;28;20125;-38
2023/01/12 01:38:39;;;;;;;20.15;5.50;;;8.10;99.90;;;;;;4993268;28;20464;-38
2023/01/12 01:41:05;;;;;;;17.60;5.75;;;8.10;99.90;;;;;;4992743;28;20108;-39
2023/01/12 01:44:03;;;;;;;14.65;5.30;;;8.10;99.90;;;;;;4997017;28;20164;-38
2023/01/12 01:46:40;;;;;;;14.15;5.15;;;8.10;99.90;;;;;;5012178;28;20041;-38
2023/01/12 01:49:31;;;;;;;21.50;6.72;;;8.00;99.90;;;;;;5012556;28;20415;-38
2023/01/12 01:52:02;;;;;;;15.07;5.40;;;8.10;99.90;;;;;;5012412;28;20534;-38
2023/01/12 01:54:33;;;;;;;19.52;5.90;;;8.00;99.90;;;;;;4992583;28;20046;-38
2023/01/12 01:56:59;;;;;;;20.60;6.72;;;8.10;99.90;;;;;;4992833;28;20049;-38
2023/01/12 01:59:31;;;;;;;20.63;6.53;;;8.20;99.90;;;;;;4993170;28;20038;-39
2023/01/12 02:01:58;;;;;;;29.42;12.73;;;8.10;99.90;;;;;;4992939;28;20400;-39
2023/01/12 02:04:24;;;;;;;15.98;6.00;;;8.10;99.90;;;;;;4992748;28;20070;-39
2023/01/12 02:06:55;;;;;;;20.45;8.93;;;8.10;99.90;;;;;;4995967;28;20049;-38
2023/01/12 02:09:24;;;;;;;20.67;7.93;;;8.10;99.90;;;;;;5013479;28;20388;-39
2023/01/12 02:17:53;;;;;;;17.48;6.38;;;8.10;99.90;;;;;;5032768;28;20053;-38
2023/01/12 02:20:51;;;;;;;19.02;6.80;;;8.10;99.90;;;;;;5031726;28;20048;-38
2023/01/12 02:23:41;;;;;;;22.50;8.23;;;8.10;99.90;;;;;;5031733;28;20099;-38
2023/01/12 02:26:24;;;;;;;23.30;8.25;;;8.20;99.90;;;;;;5019268;28;20049;-38
2023/01/12 02:29:26;;;;;;;21.30;7.60;;;8.20;99.90;;;;;;4992020;28;20046;-38
2023/01/12 02:32:07;;;;;;;14.18;6.10;;;8.20;99.90;;;;;;4992107;28;20547;-38
2023/01/12 02:34:58;;;;;;;17.92;5.95;;;8.20;99.90;;;;;;5024142;28;20340;-38
2023/01/12 02:37:53;;;;;;;20.35;6.18;;;8.20;99.90;;;;;;5032145;28;20089;-37
2023/01/12 02:40:38;;;;;;;16.65;5.68;;;8.20;99.90;;;;;;5031508;28;20395;-38
2023/01/12 02:43:21;;;;;;;17.58;6.13;;;8.20;99.90;;;;;;5023820;28;20113;-38
2023/01/12 02:45:56;;;;;;;22.17;7.15;;;8.20;99.90;;;;;;5031325;28;20463;-38
2023/01/12 02:48:34;;;;;;;21.83;7.15;;;8.20;99.90;;;;;;5030853;28;20079;-38
2023/01/12 02:51:24;;;;;;;18.63;7.20;;;8.30;99.90;;;;;;5031268;28;20042;-38
2023/01/12 02:54:17;;;;;;;21.17;6.72;;;8.30;99.90;;;;;;5030923;28;20045;-38
2023/01/12 02:56:46;;;;;;;19.65;7.80;;;8.20;99.90;;;;;;5031248;28;20069;-38
2023/01/12 02:59:20;;;;;;;21.30;7.80;;;8.30;99.90;;;;;;5031108;28;20033;-38
2023/01/12 03:01:48;;;;;;;17.00;9.75;;;8.30;99.90;;;;;;5031150;28;20038;-38
2023/01/12 03:04:16;;;;;;;24.20;8.52;;;8.20;99.90;;;;;;5031016;28;20107;-38
2023/01/12 03:06:57;;;;;;;18.67;7.38;;;8.20;99.90;;;;;;5031157;28;20671;-38
2023/01/12 03:09:54;;;;;;;17.92;7.60;;;8.20;99.90;;;;;;5047607;28;20037;-38
2023/01/12 03:12:29;;;;;;;20.05;7.20;;;8.20;99.90;;;;;;5031896;28;20030;-39
2023/01/12 03:14:58;;;;;;;20.08;7.57;;;8.20;99.90;;;;;;5030994;28;20041;-39
2023/01/12 03:17:36;;;;;;;22.10;7.45;;;8.20;99.90;;;;;;5030728;28;20132;-38
2023/01/12 03:20:13;;;;;;;17.15;7.05;;;8.20;99.90;;;;;;5047634;28;20044;-39
2023/01/12 03:22:40;;;;;;;20.33;7.40;;;8.30;99.90;;;;;;5047521;28;20045;-38
2023/01/12 03:25:12;;;;;;;22.58;7.10;;;8.30;99.90;;;;;;5030896;28;20084;-39
2023/01/12 03:27:43;;;;;;;22.88;6.82;;;8.30;99.90;;;;;;5030769;28;20037;-38
2023/01/12 03:30:17;;;;;;;17.27;7.60;;;8.30;99.90;;;;;;5030921;28;20029;-39
2023/01/12 03:32:43;;;;;;;14.98;6.40;;;8.40;99.90;;;;;;5030463;28;20038;-39
2023/01/12 03:35:10;;;;;;;14.98;6.45;;;8.30;99.90;;;;;;5030514;28;20117;-38
2023/01/12 03:37:51;;;;;;;18.13;6.65;;;8.30;99.90;;;;;;5030819;28;20422;-38
2023/01/12 03:40:22;;;;;;;19.52;6.90;;;8.30;99.90;;;;;;5030506;28;20033;-38
2023/01/12 03:43:03;;;;;;;15.90;6.60;;;8.40;99.90;;;;;;5030614;28;20033;-38
2023/01/12 03:45:51;;;;;;;14.68;6.40;;;8.40;99.90;;;;;;5047296;28;20044;-39
2023/01/12 03:48:23;;;;;;;18.27;6.35;;;8.40;99.90;;;;;;5034281;28;20380;-38
2023/01/12 03:50:57;;;;;;;14.38;7.40;;;8.40;99.90;;;;;;5034178;28;20073;-39
2023/01/12 03:53:23;;;;;;;12.70;6.32;;;8.40;99.90;;;;;;5034429;28;20034;-38
2023/01/12 03:55:53;;;;;;;12.27;5.72;;;8.40;99.90;;;;;;5035707;28;20579;-39
2023/01/12 03:58:20;;;;;;;36.30;19.40;;;8.40;99.90;;;;;;5034431;28;20037;-39
2023/01/12 04:00:46;;;;;;;16.17;7.47;;;8.40;99.90;;;;;;5033937;28;20045;-39
2023/01/12 04:03:14;;;;;;;18.58;9.80;;;8.40;99.90;;;;;;5034283;28;20037;-39
2023/01/12 04:05:42;;;;;;;13.98;7.05;;;8.40;99.90;;;;;;5034258;28;20046;-39
2023/01/12 04:08:09;;;;;;;15.18;6.30;;;8.40;99.90;;;;;;5033942;28;20034;-39
2023/01/12 04:10:35;;;;;;;11.95;5.82;;;8.50;99.90;;;;;;5033753;28;20090;-38
2023/01/12 04:13:01;;;;;;;9.73;5.20;;;8.40;99.90;;;;;;5034081;28;20120;-38
2023/01/12 04:15:27;;;;;;;10.93;5.80;;;8.50;99.90;;;;;;5034139;28;20037;-39
2023/01/12 04:17:52;;;;;;;9.93;5.00;;;8.50;99.90;;;;;;5034135;28;20037;-39
2023/01/12 04:20:18;;;;;;;11.63;4.72;;;8.50;99.90;;;;;;5033796;28;20046;-38
2023/01/12 04:22:45;;;;;;;9.98;4.47;;;8.50;99.90;;;;;;5050429;28;20137;-39
2023/01/12 04:25:19;;;;;;;9.57;4.20;;;8.50;99.90;;;;;;5033558;28;20041;-39
2023/01/12 04:27:46;;;;;;;7.78;4.15;;;8.50;99.90;;;;;;5033752;28;20541;-38
2023/01/12 04:30:12;;;;;;;7.30;4.10;;;8.50;99.90;;;;;;5050169;28;20040;-39
2023/01/12 04:32:38;;;;;;;8.05;3.80;;;8.50;99.90;;;;;;5033650;28;20033;-39
2023/01/12 04:35:05;;;;;;;5.30;3.58;;;8.50;99.90;;;;;;5033888;28;20601;-39
2023/01/12 04:37:34;;;;;;;8.88;3.92;;;8.50;99.90;;;;;;5033339;28;20037;-39
2023/01/12 04:40:00;;;;;;;4.78;2.80;;;8.50;99.90;;;;;;5033439;28;20045;-39
2023/01/12 04:45:09;;;;;;;;;;;8.50;99.90;;;;;;5035261;28;20068;-38
2023/01/12 04:47:35;;;;;;;5.72;2.13;;;8.50;99.90;;;;;;5033234;28;19919;-39
2023/01/12 04:50:01;;;;;;;4.90;2.40;;;8.50;99.90;;;;;;5033118;28;20045;-39
2023/01/12 04:52:27;;;;;;;6.50;2.63;;;8.40;99.90;;;;;;5033334;28;20057;-39
2023/01/12 04:54:52;;;;;;;4.10;2.30;;;8.40;99.90;;;;;;5033382;28;20041;-39
2023/01/12 04:57:18;;;;;;;4.93;2.80;;;8.40;99.90;;;;;;5033202;28;20390;-39
2023/01/12 04:59:44;;;;;;;4.97;2.60;;;8.40;99.90;;;;;;5034132;28;20047;-39
2023/01/12 05:02:10;;;;;;;4.88;2.38;;;8.40;99.90;;;;;;5033279;28;20445;-39
2023/01/12 05:04:35;;;;;;;5.65;2.40;;;8.40;99.90;;;;;;5032871;28;20410;-39
2023/01/12 05:07:01;;;;;;;5.55;2.70;;;8.40;99.90;;;;;;5032973;28;20470;-38
2023/01/12 05:12:11;;;;;;;5.43;2.00;;;8.40;99.90;;;;;;5034129;28;20561;-39
2023/01/12 05:14:37;;;;;;;2.95;1.80;;;8.40;99.90;;;;;;5032976;28;20041;-38
2023/01/12 05:17:03;;;;;;;5.53;2.00;;;8.30;99.90;;;;;;5032804;28;20045;-38
2023/01/12 05:19:29;;;;;;;4.93;2.00;;;8.30;99.90;;;;;;5032784;28;20117;-38
2023/01/12 05:21:55;;;;;;;7.78;2.60;;;8.40;99.90;;;;;;5033050;28;20080;-39
2023/01/12 05:24:20;;;;;;;5.97;2.17;;;8.30;99.90;;;;;;5049256;28;20562;-38
2023/01/12 05:26:46;;;;;;;5.25;2.03;;;8.30;99.90;;;;;;5032776;28;20040;-39
2023/01/12 05:29:12;;;;;;;5.63;2.08;;;8.30;99.90;;;;;;5033842;28;20072;-39
2023/01/12 05:31:39;;;;;;;5.93;1.70;;;8.30;99.90;;;;;;5030633;28;20037;-38
2023/01/12 05:34:04;;;;;;;2.85;1.67;;;8.30;99.90;;;;;;5031879;28;20037;-38
2023/01/12 05:36:30;;;;;;;5.25;1.73;;;8.20;99.90;;;;;;5033746;28;20513;-39
2023/01/12 05:38:56;;;;;;;5.13;1.88;;;8.20;99.90;;;;;;5032523;28;20041;-38
2023/01/12 05:41:22;;;;;;;4.15;1.65;;;8.30;99.90;;;;;;5015602;28;20124;-38
2023/01/12 05:43:51;;;;;;;4.38;1.80;;;8.30;99.90;;;;;;5032083;28;20490;-38
2023/01/12 05:46:21;;;;;;;4.28;1.60;;;8.30;99.90;;;;;;5032086;28;20121;-38
2023/01/12 05:48:48;;;;;;;2.80;2.17;;;8.30;99.90;;;;;;5048730;28;20049;-41
2023/01/12 05:51:15;;;;;;;3.88;2.13;;;8.30;99.90;;;;;;5032181;28;20052;-39
2023/01/12 05:53:41;;;;;;;4.72;1.80;;;8.30;99.90;;;;;;5031858;28;20033;-39
2023/01/12 05:56:10;;;;;;;5.82;2.15;;;8.30;99.90;;;;;;5031915;28;20124;-39
2023/01/12 05:58:36;;;;;;;4.85;2.17;;;8.30;99.90;;;;;;5031908;28;20120;-39
2023/01/12 06:01:09;;;;;;;8.05;2.00;;;8.30;99.90;;;;;;5032178;28;20112;-39
2023/01/12 06:03:36;;;;;;;6.32;2.30;;;8.30;99.90;;;;;;5031863;28;20048;-38
2023/01/12 06:06:03;;;;;;;7.40;1.92;;;8.30;99.90;;;;;;5032064;28;20487;-38
2023/01/12 06:08:28;;;;;;;3.63;2.10;;;8.30;99.90;;;;;;5032026;28;20557;-39
2023/01/12 06:10:58;;;;;;;5.57;2.38;;;8.40;99.90;;;;;;5014186;28;20045;-38
2023/01/12 06:16:08;;;;;;;5.53;1.70;;;8.40;99.90;;;;;;5033110;28;20053;-39
2023/01/12 06:18:38;;;;;;;8.68;2.35;;;8.40;99.90;;;;;;5031558;28;20483;-39
2023/01/12 06:21:06;;;;;;;8.45;2.33;;;8.40;99.90;;;;;;5031863;28;20047;-39
2023/01/12 06:23:32;;;;;;;5.63;2.17;;;8.40;99.90;;;;;;5031396;28;20037;-39
2023/01/12 06:26:04;;;;;;;5.10;2.33;;;8.40;99.90;;;;;;5031372;28;20042;-38
2023/01/12 06:28:29;;;;;;;5.65;2.22;;;8.40;99.90;;;;;;5031651;28;20103;-39
2023/01/12 06:31:01;;;;;;;6.72;2.25;;;8.50;99.90;;;;;;5031700;28;20041;-39
2023/01/12 06:33:28;;;;;;;5.13;2.30;;;8.50;99.90;;;;;;5031622;28;20108;-40
2023/01/12 06:35:55;;;;;;;5.65;2.55;;;8.50;99.90;;;;;;5032517;28;20421;-39
2023/01/12 06:38:23;;;;;;;4.82;2.17;;;8.50;99.90;;;;;;5032598;28;20124;-39
2023/01/12 06:40:49;;;;;;;4.15;2.00;;;8.50;99.90;;;;;;5031714;28;20499;-39
2023/01/12 06:43:15;;;;;;;3.75;1.92;;;8.60;99.90;;;;;;5031510;28;20107;-39
2023/01/12 06:45:42;;;;;;;3.70;2.00;;;8.60;99.90;;;;;;5031467;28;20044;-41
2023/01/12 06:48:08;;;;;;;6.25;2.20;;;8.70;99.90;;;;;;5031142;28;20033;-41
2023/01/12 06:50:35;;;;;;;5.38;3.20;;;8.60;99.90;;;;;;5031347;28;20044;-41
2023/01/12 06:53:03;;;;;;;7.05;2.53;;;8.60;99.90;;;;;;5030982;28;20040;-40
2023/01/12 06:55:29;;;;;;;6.63;2.65;;;8.70;99.90;;;;;;5031043;28;20041;-39
2023/01/12 06:57:55;;;;;;;3.50;2.15;;;8.80;99.90;;;;;;5031136;28;20045;-40
2023/01/12 07:00:22;;;;;;;3.17;1.92;;;8.70;99.90;;;;;;5030961;28;20071;-39
2023/01/12 07:02:51;;;;;;;4.70;2.10;;;8.80;99.90;;;;;;5029725;28;20034;-38
2023/01/12 07:05:17;;;;;;;5.30;1.85;;;8.80;99.90;;;;;;5029489;28;20045;-40
2023/01/12 07:07:43;;;;;;;3.92;1.90;;;8.80;99.90;;;;;;5031253;28;20030;-39
2023/01/12 07:10:10;;;;;;;2.95;1.60;;;8.80;99.90;;;;;;5031275;28;20034;-39
2023/01/12 07:12:36;;;;;;;4.30;2.15;;;8.90;99.90;;;;;;5030732;28;20041;-40
2023/01/12 07:15:02;;;;;;;2.75;1.70;;;8.90;99.90;;;;;;5031140;28;20045;-40
2023/01/12 07:17:30;;;;;;;4.03;2.15;;;8.90;99.90;;;;;;5031088;28;20048;-41
2023/01/12 07:19:56;;;;;;;4.65;2.35;;;8.90;99.90;;;;;;5047264;28;20045;-39
2023/01/12 07:22:22;;;;;;;3.20;1.92;;;9.00;99.90;;;;;;5033978;28;20509;-41
2023/01/12 07:24:48;;;;;;;3.25;2.30;;;8.90;99.90;;;;;;5034944;28;20441;-39
2023/01/12 07:27:14;;;;;;;3.35;1.80;;;9.00;99.90;;;;;;5033342;28;20034;-39
2023/01/12 07:29:40;;;;;;;3.08;2.10;;;9.00;99.90;;;;;;5033064;28;20120;-39
2023/01/12 07:32:06;;;;;;;3.22;2.00;;;9.00;99.90;;;;;;5033181;28;20033;-39
2023/01/12 07:34:31;;;;;;;4.07;2.13;;;9.10;99.90;;;;;;5032907;28;20041;-39
2023/01/12 07:36:57;;;;;;;3.13;2.22;;;9.10;99.90;;;;;;5031821;28;20037;-39
2023/01/12 07:39:23;;;;;;;3.70;2.30;;;9.10;99.90;;;;;;5033173;28;20061;-40
2023/01/12 07:44:33;;;;;;;3.40;2.10;;;9.10;99.90;;;;;;5033345;28;20107;-39
2023/01/12 07:46:58;;;;;;;3.10;2.10;;;9.10;99.90;;;;;;5033586;28;20041;-40
2023/01/12 07:49:25;;;;;;;3.72;2.55;;;9.10;99.90;;;;;;5050364;28;20125;-41
2023/01/12 07:51:52;;;;;;;2.83;2.00;;;9.10;99.90;;;;;;5034045;28;20038;-42
2023/01/12 07:54:19;;;;;;;2.58;2.00;;;9.10;99.90;;;;;;5034571;28;20124;-43
2023/01/12 07:56:46;;;;;;;1.55;1.38;;;9.10;99.90;;;;;;5035653;28;20075;-40
2023/01/12 07:59:11;;;;;;;4.70;2.40;;;9.10;99.90;;;;;;5034469;28;20033;-40
2023/01/12 08:01:38;;;;;;;4.20;2.95;;;9.10;99.90;;;;;;5034327;28;20475;-39
2023/01/12 08:04:04;;;;;;;7.18;4.05;;;9.10;99.90;;;;;;5050863;28;20038;-41
2023/01/12 08:06:30;;;;;;;9.02;4.20;;;9.10;99.90;;;;;;5034204;28;20045;-40
2023/01/12 08:08:56;;;;;;;5.47;3.65;;;9.10;99.90;;;;;;5034018;28;20041;-41
2023/01/12 08:11:22;;;;;;;7.88;4.97;;;9.10;99.90;;;;;;5033817;28;20056;-41
2023/01/12 08:13:52;;;;;;;5.15;3.70;;;9.10;99.90;;;;;;5034126;28;20128;-42
2023/01/12 08:16:22;;;;;;;6.53;4.00;;;9.20;99.90;;;;;;5034153;28;20490;-41
2023/01/12 08:19:07;;;;;;;8.10;4.97;;;9.20;99.90;;;;;;5034104;28;20454;-42
2023/01/12 08:21:44;;;;;;;8.43;6.10;;;9.20;99.90;;;;;;5034035;28;20037;-42
2023/01/12 08:24:15;;;;;;;9.38;5.85;;;9.10;99.90;;;;;;5033828;28;20064;-45
2023/01/12 08:26:44;;;;;;;25.30;14.27;;;9.20;99.90;;;;;;5033762;28;20088;-41
2023/01/12 08:29:28;;;;;;;10.85;7.35;;;9.20;99.90;;;;;;5033867;28;20128;-43
2023/01/12 08:32:00;;;;;;;18.63;12.05;;;9.30;99.90;;;;;;5033328;28;20049;-43
2023/01/12 08:34:27;;;;;;;20.58;11.32;;;9.30;99.90;;;;;;5032851;28;20088;-42
2023/01/12 08:36:54;;;;;;;14.48;8.38;;;9.30;99.90;;;;;;5033766;28;20048;-43
2023/01/12 08:39:19;;;;;;;9.00;6.70;;;9.30;99.90;;;;;;5033661;28;20498;-42
2023/01/12 08:41:46;;;;;;;5.65;4.63;;;9.40;99.90;;;;;;5033681;28;20045;-41
2023/01/12 08:44:11;;;;;;;7.60;5.32;;;9.40;99.90;;;;;;5016910;28;20568;-41
2023/01/12 08:46:47;;;;;;;5.82;4.88;;;9.40;99.90;;;;;;5033518;28;20033;-42
2023/01/12 08:49:14;;;;;;;9.90;6.80;;;9.40;99.90;;;;;;5033845;28;20513;-44
2023/01/12 08:51:41;;;;;;;7.18;5.05;;;9.50;99.90;;;;;;5033480;28;20391;-44
2023/01/12 08:54:09;;;;;;;6.72;5.25;;;9.50;99.90;;;;;;5033488;28;20445;-44
2023/01/12 08:56:35;;;;;;;6.32;4.45;;;9.50;99.90;;;;;;5033320;28;20490;-46
2023/01/12 08:59:02;;;;;;;9.73;4.68;;;9.60;99.90;;;;;;5034543;28;20107;-45
2023/01/12 09:01:27;;;;;;;6.70;4.55;;;9.60;99.90;;;;;;5033204;28;20125;-44
2023/01/12 09:03:55;;;;;;;7.32;4.97;;;9.60;99.90;;;;;;5034328;28;20487;-44
2023/01/12 09:06:24;;;;;;;6.45;4.65;;;9.70;99.90;;;;;;5033108;28;20395;-45
2023/01/12 09:09:01;;;;;;;5.95;4.60;;;9.70;99.90;;;;;;5032889;28;20056;-45
2023/01/12 09:11:28;;;;;;;7.80;4.50;;;9.80;99.90;;;;;;5033039;28;20038;-45
2023/01/12 09:13:55;;;;;;;9.45;4.82;;;9.80;99.90;;;;;;5032820;28;20494;-44
2023/01/12 09:16:21;;;;;;;10.77;4.45;;;9.80;99.90;;;;;;5031108;28;20044;-45
2023/01/12 09:18:47;;;;;;;10.13;5.25;;;9.90;99.90;;;;;;5013104;28;20092;-45
2023/01/12 09:21:18;;;;;;;14.00;5.00;;;9.90;99.90;;;;;;5013114;28;20511;-44
2023/01/12 09:23:45;;;;;;;12.52;4.75;;;10.00;99.90;;;;;;5012671;28;20080;-43
2023/01/12 09:26:13;;;;;;;14.68;4.95;;;10.00;99.90;;;;;;5014148;28;20045;-45
2023/01/12 09:28:40;;;;;;;14.77;5.00;;;10.10;99.90;;;;;;5012639;28;20038;-46
2023/01/12 09:31:12;;;;;;;14.00;4.82;;;10.10;99.90;;;;;;5013890;28;20038;-45
2023/01/12 09:33:39;;;;;;;27.02;5.32;;;10.10;99.90;;;;;;5012811;28;20543;-46
2023/01/12 09:36:07;;;;;;;20.58;4.80;;;10.10;99.90;;;;;;5012576;28;20124;-45
2023/01/12 09:38:40;;;;;;;24.23;5.10;;;10.20;99.90;;;;;;5012825;28;20065;-44
2023/01/12 09:46:57;;;;;;;26.00;4.82;;;10.20;99.90;;;;;;5012366;28;20099;-45
2023/01/12 09:47:33;;;;;;;23.52;4.38;;;10.40;99.90;;;;;;5013581;28;20264;-45
2023/01/12 09:50:02;;;;;;;;;;;10.50;99.90;;;;;;5013020;28;20678;-47
2023/01/12 09:52:35;;;;;;;17.85;4.68;;;10.60;99.90;;;;;;5012322;28;20359;-45
2023/01/12 09:55:02;;;;;;;21.27;4.65;;;10.60;99.90;;;;;;5012521;28;20491;-44
2023/01/12 09:57:55;;;;;;;23.60;5.43;;;10.60;99.90;;;;;;5012101;28;20038;-45
2023/01/12 10:00:22;;;;;;;20.20;4.40;;;10.60;99.90;;;;;;5012257;28;20058;-49
2023/01/12 10:02:53;;;;;;;19.60;4.20;;;10.70;99.90;;;;;;5011912;28;20073;-45
2023/01/12 10:05:51;;;;;;;25.05;4.78;;;10.70;99.90;;;;;;4995574;28;20038;-45
2023/01/12 10:08:34;;;;;;;23.63;5.50;;;10.80;99.90;;;;;;5004225;28;20046;-48
2023/01/12 10:11:07;;;;;;;23.50;5.20;;;10.90;99.90;;;;;;5027041;28;20045;-44
2023/01/12 10:14:12;;;;;;;21.70;4.80;;;10.90;99.90;;;;;;5031935;28;20038;-45
2023/01/12 10:16:37;;;;;;;;;;;10.90;99.90;;;;;;5024129;28;20041;-42
2023/01/12 10:19:13;;;;;;;18.50;4.15;;;10.90;99.90;;;;;;5032645;28;20204;-41
2023/01/12 10:21:40;;;;;;;21.80;4.78;;;10.90;99.90;;;;;;5031484;28;20045;-41
2023/01/12 10:24:11;;;;;;;16.98;3.78;;;10.90;99.90;;;;;;5031212;28;20053;-43
2023/01/12 10:26:42;;;;;;;15.77;4.13;;;11.00;99.90;;;;;;5031431;28;20116;-41
2023/01/12 10:29:10;;;;;;;15.00;3.45;;;11.00;99.90;;;;;;5031402;28;20176;-42
2023/01/12 10:31:37;;;;;;;19.60;4.20;;;11.00;99.90;;;;;;5031462;28;20120;-42
2023/01/12 10:34:11;;;;;;;15.98;3.45;;;11.00;99.90;;;;;;5031311;28;20034;-43
2023/01/12 10:37:03;;;;;;;21.92;7.68;;;11.00;99.90;;;;;;5031634;28;20044;-46
2023/01/12 10:39:32;;;;;;;21.35;8.60;;;11.00;99.90;;;;;;5019896;28;20042;-40
2023/01/12 10:45:19;;;;;;;15.77;5.85;;;11.00;99.90;;;;;;4992901;28;20061;-42
2023/01/12 10:47:46;;;;;;;13.38;4.32;;;11.00;99.90;;;;;;4991747;28;20061;-43
2023/01/12 10:50:30;;;;;;;8.40;3.65;;;11.00;99.90;;;;;;4991729;28;20035;-43
2023/01/12 10:53:08;;;;;;;10.27;3.13;;;11.00;99.90;;;;;;4991885;28;20030;-43
2023/01/12 10:55:39;;;;;;;15.15;3.25;;;10.90;99.90;;;;;;4991164;28;20050;-42
2023/01/12 10:58:17;;;;;;;16.20;4.97;;;10.90;99.90;;;;;;4991615;28;20093;-42
2023/01/12 11:00:47;;;;;;;17.38;3.78;;;10.90;99.90;;;;;;4991866;28;20511;-44
2023/01/12 11:03:38;;;;;;;17.17;4.00;;;10.90;99.90;;;;;;4991466;28;20042;-43
2023/01/12 11:06:33;;;;;;;20.83;4.63;;;10.90;99.90;;;;;;4991802;28;20047;-43
2023/01/12 11:09:17;;;;;;;20.80;4.40;;;10.90;99.90;;;;;;4983096;28;20408;-42
2023/01/12 11:11:46;;;;;;;;;;;10.90;99.90;;;;;;4991849;28;20116;-43
2023/01/12 11:14:24;;;;;;;18.77;4.88;;;10.90;99.90;;;;;;4991664;28;20334;-42
2023/01/12 11:16:50;;;;;;;18.05;4.45;;;11.00;99.90;;;;;;4975166;28;20050;-41
2023/01/12 11:19:36;;;;;;;21.63;4.47;;;11.00;99.90;;;;;;4991583;28;20104;-41
2023/01/12 11:22:16;;;;;;;17.42;3.88;;;11.10;99.90;;;;;;4991311;28;20076;-42
2023/01/12 11:24:56;;;;;;;21.70;4.25;;;11.10;99.90;;;;;;4991494;28;20046;-42
2023/01/12 11:27:39;;;;;;;23.27;5.45;;;11.10;99.90;;;;;;5007654;28;20045;-41
2023/01/12 11:30:14;;;;;;;14.95;3.75;;;11.10;99.90;;;;;;4991581;28;20052;-41
2023/01/12 11:33:09;;;;;;;17.52;4.07;;;11.10;99.90;;;;;;4991118;28;20046;-41
2023/01/12 11:35:52;;;;;;;15.38;3.20;;;11.10;99.90;;;;;;4989905;28;20427;-40
2023/01/12 11:38:29;;;;;;;15.13;3.65;;;11.10;99.90;;;;;;4991266;28;20053;-40
2023/01/12 11:40:57;;;;;;;21.25;3.88;;;11.10;99.90;;;;;;4991071;28;20046;-41
2023/01/12 11:43:54;;;;;;;16.30;3.83;;;11.20;99.90;;;;;;4991102;28;20092;-40
2023/01/12 11:46:37;;;;;;;16.83;3.47;;;11.20;99.90;;;;;;4991180;28;20527;-41
2023/01/12 11:49:45;;;;;;;19.63;4.25;;;11.30;99.90;;;;;;4991460;28;20108;-41
2023/01/12 11:52:13;;;;;;;14.88;4.47;;;11.30;99.90;;;;;;4972004;28;20046;-40
2023/01/12 11:54:39;;;;;;;18.35;4.93;;;11.30;99.90;;;;;;4991451;28;20459;-41
2023/01/12 11:57:26;;;;;;;18.38;3.70;;;11.40;99.90;;;;;;4991351;28;20061;-41
2023/01/12 12:00:07;;;;;;;19.77;3.90;;;11.30;99.90;;;;;;4991087;28;20084;-41
2023/01/12 12:02:48;;;;;;;14.90;4.03;;;11.40;99.90;;;;;;4991215;28;20046;-41
2023/01/12 12:05:52;;;;;;;17.52;4.07;;;11.40;99.90;;;;;;4991045;28;20130;-39
2023/01/12 12:08:24;;;;;;;14.73;3.63;;;11.40;99.90;;;;;;4978882;28;20046;-39
2023/01/12 12:11:02;;;;;;;17.30;3.95;;;11.50;99.90;;;;;;4996018;28;20050;-42
2023/01/12 12:13:52;;;;;;;14.48;3.97;;;11.50;99.90;;;;;;4994557;28;20046;-39
2023/01/12 12:16:22;;;;;;;17.50;5.07;;;11.50;99.90;;;;;;4994590;28;20125;-39
2023/01/12 12:19:07;;;;;;;18.75;5.38;;;11.50;99.90;;;;;;4994785;28;20050;-41
2023/01/12 12:21:50;;;;;;;23.92;6.53;;;11.50;99.90;;;;;;4994416;28;20038;-42
2023/01/12 12:24:50;;;;;;;17.45;4.55;;;11.40;99.90;;;;;;4994638;28;20507;-40
2023/01/12 12:27:23;;;;;;;21.45;5.82;;;11.30;99.90;;;;;;4994347;28;20046;-40
2023/01/12 12:30:00;;;;;;;23.60;8.57;;;11.30;99.90;;;;;;4994242;28;20038;-40
2023/01/12 12:33:00;;;;;;;25.10;6.32;;;11.30;99.90;;;;;;4995714;28;20042;-39
2023/01/12 12:35:35;;;;;;;22.75;4.78;;;11.30;99.90;;;;;;4994342;28;20046;-39
2023/01/12 12:38:26;;;;;;;17.17;5.40;;;11.30;99.90;;;;;;4994349;28;20045;-41
2023/01/12 12:47:42;;;;;;;17.83;4.32;;;11.40;99.90;;;;;;4995184;28;20050;-39
2023/01/12 12:50:35;;;;;;;15.18;5.30;;;11.40;99.90;;;;;;4994278;28;20596;-39
2023/01/12 12:53:04;;;;;;;17.58;5.25;;;11.40;99.90;;;;;;4994610;28;20049;-40
2023/01/12 12:55:30;;;;;;;13.23;4.43;;;11.50;99.90;;;;;;4994132;28;20465;-39
2023/01/12 12:58:01;;;;;;;25.08;6.97;;;11.50;99.90;;;;;;4993977;28;20047;-40
2023/01/12 13:00:41;;;;;;;21.13;8.35;;;11.50;99.90;;;;;;4993670;28;20054;-40
2023/01/12 13:03:08;;;;;;;22.50;7.32;;;11.50;99.90;;;;;;4993915;28;20431;-40
2023/01/12 13:06:09;;;;;;;20.00;5.13;;;11.50;99.90;;;;;;4993921;28;20133;-41
2023/01/12 13:08:35;;;;;;;21.65;4.93;;;11.50;99.90;;;;;;4993958;28;20046;-40
2023/01/12 13:11:01;;;;;;;17.40;4.18;;;11.50;99.90;;;;;;4993455;28;20081;-39
2023/01/12 13:13:30;;;;;;;12.70;3.40;;;11.50;99.90;;;;;;4993474;28;20042;-40
2023/01/12 13:16:14;;;;;;;12.40;3.80;;;11.50;99.90;;;;;;4993312;28;20082;-39
2023/01/12 13:18:49;;;;;;;22.30;5.00;;;11.50;99.90;;;;;;4992805;28;20038;-40
2023/01/12 13:21:40;;;;;;;13.63;4.30;;;11.50;99.90;;;;;;4993196;28;20050;-40
2023/01/12 13:24:09;;;;;;;18.17;4.75;;;11.50;99.90;;;;;;4993328;28;20038;-40
2023/01/12 13:26:34;;;;;;;17.75;4.90;;;11.50;99.90;;;;;;4993137;28;20038;-40
2023/01/12 13:29:22;;;;;;;25.85;7.40;;;11.50;99.90;;;;;;4993197;28;20049;-39
2023/01/12 13:31:49;;;;;;;38.83;12.38;;;11.40;99.90;;;;;;4993329;28;20070;-39
2023/01/12 13:34:50;;;;;;;24.98;8.60;;;11.40;99.90;;;;;;4993405;28;20520;-39
2023/01/12 13:37:47;;;;;;;37.00;16.27;;;11.40;99.90;;;;;;4972285;28;20061;-40
2023/01/12 13:40:28;;;;;;;40.40;19.17;;;11.40;99.90;;;;;;4992818;28;20053;-40
2023/01/12 13:43:13;;;;;;;24.52;10.23;;;11.30;99.90;;;;;;4993102;28;20561;-39
2023/01/12 13:46:04;;;;;;;19.77;8.13;;;11.30;99.90;;;;;;4993111;28;20042;-40
2023/01/12 13:48:34;;;;;;;34.60;18.08;;;11.30;99.90;;;;;;4985657;28;20057;-41
2023/01/12 13:51:30;;;;;;;19.45;10.63;;;11.30;99.90;;;;;;4992694;28;20076;-39